메인 페이지
METAR-TAF:

METAR-TAF

공항 :

Puerto Maldonado, 페루

위도: 12-38S, 경도: 069-12W, 고도: 265m

현재 날씨관측

예보는 1 시간 3분 전, 18:00시(UTC)에 발표되었습니다.
북북서9kt서북서풍과 북북동풍을 오가는
온도 30°C
습도 79%
기압 1009 hPa
시정 10km 이상
고도 1200ft 상공 구름 보통

METAR: SPTU 141800Z 34009KT 300V020 9999 SCT012 30/26 Q1009 RMK BIRD HAZARD RWY 01/19 PP000

시각: 14:03 (19:03 UTC)

예보

예보는 2 시간 3분 전, 17:00시(UTC)에 발표되었습니다.
예보 대상 시간: 14일 18시부터 15일 18시까지 (UTC)
북서5kt
시정 10km 이상
고도 1000ft 상공 구름 많음
전환 중
14일 19시부터 14일 21시까지 (UTC)
고도 3000ft 상공 구름 보통

TAF: SPTU 141700Z 1418/1518 31005KT 9999 BKN010 TX31/1419Z TN23/1511Z BECMG 1419/1421 SCT030

4,000개 이상의 공항 관측 자료 및 예보 (METAR 및 TAF 보고).

지도상에서 검색 가능한 기상관측소가 노란 점과 빨간 점으로 표시되어 있습니다.

기상관측소 명을 보려면 표시 위로 마우스를 이동하세요.

날씨 관측과 예보를 보려면 클릭하세요.

지도 변경 : 확대하려면 엑스 표시가 있는 녹색 버튼, 축소하려면 빼기 표시가 있는 녹색 버튼, 다음 페이지의 지도를 보려면 녹색 화살표를 클릭하세요.


METAR-TAF: